sensor_id;sensor_type;location;lat;lon;timestamp;P1;durP1;ratioP1;P2;durP2;ratioP2
47894;SDS011;33653;52.302;8.134;2022-11-20T00:01:31;3.43;;;2.30;;
47894;SDS011;33653;52.302;8.134;2022-11-20T00:04:00;4.23;;;3.83;;
47894;SDS011;33653;52.302;8.134;2022-11-20T00:06:30;3.20;;;3.00;;
47894;SDS011;33653;52.302;8.134;2022-11-20T00:08:59;2.07;;;1.97;;
47894;SDS011;33653;52.302;8.134;2022-11-20T00:11:28;3.90;;;3.60;;
47894;SDS011;33653;52.302;8.134;2022-11-20T00:13:59;2.60;;;2.47;;
47894;SDS011;33653;52.302;8.134;2022-11-20T00:16:28;3.43;;;3.13;;
47894;SDS011;33653;52.302;8.134;2022-11-20T00:18:59;4.10;;;3.80;;
47894;SDS011;33653;52.302;8.134;2022-11-20T00:21:27;2.00;;;1.90;;
47894;SDS011;33653;52.302;8.134;2022-11-20T00:23:57;6.80;;;3.10;;
47894;SDS011;33653;52.302;8.134;2022-11-20T00:26:26;2.23;;;2.10;;
47894;SDS011;33653;52.302;8.134;2022-11-20T00:28:56;2.73;;;2.53;;
47894;SDS011;33653;52.302;8.134;2022-11-20T00:31:26;3.33;;;3.08;;
47894;SDS011;33653;52.302;8.134;2022-11-20T00:33:55;9.43;;;3.87;;
47894;SDS011;33653;52.302;8.134;2022-11-20T00:36:24;4.13;;;2.63;;
47894;SDS011;33653;52.302;8.134;2022-11-20T00:38:54;3.83;;;3.63;;
47894;SDS011;33653;52.302;8.134;2022-11-20T00:41:24;3.03;;;2.83;;
47894;SDS011;33653;52.302;8.134;2022-11-20T00:43:53;4.57;;;2.60;;
47894;SDS011;33653;52.302;8.134;2022-11-20T00:46:22;3.53;;;3.23;;
47894;SDS011;33653;52.302;8.134;2022-11-20T00:48:52;8.70;;;3.70;;
47894;SDS011;33653;52.302;8.134;2022-11-20T00:51:21;3.90;;;3.60;;
47894;SDS011;33653;52.302;8.134;2022-11-20T00:56:22;2.80;;;2.60;;
47894;SDS011;33653;52.302;8.134;2022-11-20T00:58:49;1.70;;;1.63;;
47894;SDS011;33653;52.302;8.134;2022-11-20T01:01:19;2.60;;;2.40;;
47894;SDS011;33653;52.302;8.134;2022-11-20T01:03:53;2.50;;;2.40;;
47894;SDS011;33653;52.302;8.134;2022-11-20T01:06:34;2.40;;;2.30;;
47894;SDS011;33653;52.302;8.134;2022-11-20T01:09:05;3.90;;;3.60;;
47894;SDS011;33653;52.302;8.134;2022-11-20T01:11:37;2.70;;;2.57;;
47894;SDS011;33653;52.302;8.134;2022-11-20T01:14:14;3.33;;;2.50;;
47894;SDS011;33653;52.302;8.134;2022-11-20T01:16:47;3.33;;;2.90;;
47894;SDS011;33653;52.302;8.134;2022-11-20T01:19:18;3.43;;;3.17;;
47894;SDS011;33653;52.302;8.134;2022-11-20T01:21:50;2.87;;;2.63;;
47894;SDS011;33653;52.302;8.134;2022-11-20T01:24:20;3.17;;;2.88;;
47894;SDS011;33653;52.302;8.134;2022-11-20T01:26:50;2.03;;;1.93;;
47894;SDS011;33653;52.302;8.134;2022-11-20T01:29:20;2.33;;;2.17;;
47894;SDS011;33653;52.302;8.134;2022-11-20T01:31:51;2.30;;;2.20;;
47894;SDS011;33653;52.302;8.134;2022-11-20T01:34:20;4.90;;;2.97;;
47894;SDS011;33653;52.302;8.134;2022-11-20T01:36:49;2.83;;;2.63;;
47894;SDS011;33653;52.302;8.134;2022-11-20T01:39:18;2.20;;;2.10;;
47894;SDS011;33653;52.302;8.134;2022-11-20T01:41:50;4.40;;;4.10;;
47894;SDS011;33653;52.302;8.134;2022-11-20T01:44:52;3.73;;;3.43;;
47894;SDS011;33653;52.302;8.134;2022-11-20T01:47:33;2.20;;;2.00;;
47894;SDS011;33653;52.302;8.134;2022-11-20T01:50:12;3.87;;;3.50;;
47894;SDS011;33653;52.302;8.134;2022-11-20T01:55:44;2.80;;;2.60;;
47894;SDS011;33653;52.302;8.134;2022-11-20T01:58:20;2.50;;;2.40;;
47894;SDS011;33653;52.302;8.134;2022-11-20T02:01:00;2.13;;;2.03;;
47894;SDS011;33653;52.302;8.134;2022-11-20T02:03:29;2.30;;;2.20;;
47894;SDS011;33653;52.302;8.134;2022-11-20T02:06:00;2.03;;;1.93;;
47894;SDS011;33653;52.302;8.134;2022-11-20T02:08:41;5.33;;;3.50;;
47894;SDS011;33653;52.302;8.134;2022-11-20T02:11:09;2.83;;;2.67;;
47894;SDS011;33653;52.302;8.134;2022-11-20T02:13:39;4.53;;;4.13;;
47894;SDS011;33653;52.302;8.134;2022-11-20T02:16:19;2.33;;;2.22;;
47894;SDS011;33653;52.302;8.134;2022-11-20T02:19:01;8.73;;;2.37;;
47894;SDS011;33653;52.302;8.134;2022-11-20T02:21:39;3.63;;;3.33;;
47894;SDS011;33653;52.302;8.134;2022-11-20T02:24:21;2.00;;;1.90;;
47894;SDS011;33653;52.302;8.134;2022-11-20T02:26:50;3.30;;;3.10;;
47894;SDS011;33653;52.302;8.134;2022-11-20T02:29:53;2.23;;;2.13;;
47894;SDS011;33653;52.302;8.134;2022-11-20T02:32:25;3.67;;;3.47;;
47894;SDS011;33653;52.302;8.134;2022-11-20T02:34:56;5.00;;;2.87;;
47894;SDS011;33653;52.302;8.134;2022-11-20T02:37:27;3.37;;;3.07;;
47894;SDS011;33653;52.302;8.134;2022-11-20T02:39:59;3.40;;;3.20;;
47894;SDS011;33653;52.302;8.134;2022-11-20T02:42:27;2.70;;;2.60;;
47894;SDS011;33653;52.302;8.134;2022-11-20T02:44:55;2.83;;;2.63;;
47894;SDS011;33653;52.302;8.134;2022-11-20T02:47:23;3.43;;;3.23;;
47894;SDS011;33653;52.302;8.134;2022-11-20T02:49:51;2.17;;;2.07;;
47894;SDS011;33653;52.302;8.134;2022-11-20T02:52:19;2.93;;;2.83;;
47894;SDS011;33653;52.302;8.134;2022-11-20T02:54:47;4.83;;;2.37;;
47894;SDS011;33653;52.302;8.134;2022-11-20T02:57:14;2.30;;;2.20;;
47894;SDS011;33653;52.302;8.134;2022-11-20T02:59:42;1.90;;;1.80;;
47894;SDS011;33653;52.302;8.134;2022-11-20T03:02:10;3.00;;;2.80;;
47894;SDS011;33653;52.302;8.134;2022-11-20T03:04:38;3.43;;;3.23;;
47894;SDS011;33653;52.302;8.134;2022-11-20T03:07:07;2.73;;;2.53;;
47894;SDS011;33653;52.302;8.134;2022-11-20T03:09:35;4.33;;;3.33;;
47894;SDS011;33653;52.302;8.134;2022-11-20T03:12:03;3.00;;;2.80;;
47894;SDS011;33653;52.302;8.134;2022-11-20T03:14:31;2.93;;;2.70;;
47894;SDS011;33653;52.302;8.134;2022-11-20T03:16:59;2.60;;;2.50;;
47894;SDS011;33653;52.302;8.134;2022-11-20T03:19:27;3.40;;;3.20;;
47894;SDS011;33653;52.302;8.134;2022-11-20T03:21:55;2.40;;;2.30;;
47894;SDS011;33653;52.302;8.134;2022-11-20T03:24:23;2.73;;;2.60;;
47894;SDS011;33653;52.302;8.134;2022-11-20T03:26:51;2.80;;;2.63;;
47894;SDS011;33653;52.302;8.134;2022-11-20T03:29:19;2.60;;;2.40;;
47894;SDS011;33653;52.302;8.134;2022-11-20T03:31:47;1.73;;;1.63;;
47894;SDS011;33653;52.302;8.134;2022-11-20T03:34:15;3.53;;;3.33;;
47894;SDS011;33653;52.302;8.134;2022-11-20T03:36:43;2.67;;;2.47;;
47894;SDS011;33653;52.302;8.134;2022-11-20T03:39:11;2.80;;;2.70;;
47894;SDS011;33653;52.302;8.134;2022-11-20T03:41:39;2.87;;;2.63;;
47894;SDS011;33653;52.302;8.134;2022-11-20T03:44:09;2.77;;;2.67;;
47894;SDS011;33653;52.302;8.134;2022-11-20T03:46:38;1.83;;;1.77;;
47894;SDS011;33653;52.302;8.134;2022-11-20T03:49:06;1.97;;;1.87;;
47894;SDS011;33653;52.302;8.134;2022-11-20T03:51:34;6.50;;;2.80;;
47894;SDS011;33653;52.302;8.134;2022-11-20T03:54:06;2.50;;;2.40;;
47894;SDS011;33653;52.302;8.134;2022-11-20T03:56:36;2.70;;;2.03;;
47894;SDS011;33653;52.302;8.134;2022-11-20T03:59:22;2.17;;;2.08;;
47894;SDS011;33653;52.302;8.134;2022-11-20T04:01:50;2.90;;;2.73;;
47894;SDS011;33653;52.302;8.134;2022-11-20T04:04:18;2.47;;;2.33;;
47894;SDS011;33653;52.302;8.134;2022-11-20T04:06:46;2.23;;;2.13;;
47894;SDS011;33653;52.302;8.134;2022-11-20T04:09:14;6.03;;;3.57;;
47894;SDS011;33653;52.302;8.134;2022-11-20T04:11:42;3.87;;;2.67;;
47894;SDS011;33653;52.302;8.134;2022-11-20T04:14:14;1.90;;;1.80;;
47894;SDS011;33653;52.302;8.134;2022-11-20T04:16:42;3.13;;;2.93;;
47894;SDS011;33653;52.302;8.134;2022-11-20T04:19:12;3.30;;;3.10;;
47894;SDS011;33653;52.302;8.134;2022-11-20T04:21:42;2.53;;;2.22;;
47894;SDS011;33653;52.302;8.134;2022-11-20T04:24:10;2.77;;;2.57;;
47894;SDS011;33653;52.302;8.134;2022-11-20T04:26:39;2.93;;;2.57;;
47894;SDS011;33653;52.302;8.134;2022-11-20T04:29:09;3.80;;;3.60;;
47894;SDS011;33653;52.302;8.134;2022-11-20T04:34:06;5.33;;;4.83;;
47894;SDS011;33653;52.302;8.134;2022-11-20T04:36:34;1.87;;;1.77;;
47894;SDS011;33653;52.302;8.134;2022-11-20T04:39:04;5.60;;;5.00;;
47894;SDS011;33653;52.302;8.134;2022-11-20T04:41:34;2.55;;;2.45;;
47894;SDS011;33653;52.302;8.134;2022-11-20T04:44:04;2.40;;;2.30;;
47894;SDS011;33653;52.302;8.134;2022-11-20T04:46:33;2.87;;;2.77;;
47894;SDS011;33653;52.302;8.134;2022-11-20T04:49:05;2.07;;;1.97;;
47894;SDS011;33653;52.302;8.134;2022-11-20T04:51:33;2.90;;;2.70;;
47894;SDS011;33653;52.302;8.134;2022-11-20T04:54:01;3.60;;;3.30;;
47894;SDS011;33653;52.302;8.134;2022-11-20T04:56:29;3.50;;;3.23;;
47894;SDS011;33653;52.302;8.134;2022-11-20T04:58:59;2.23;;;2.13;;
47894;SDS011;33653;52.302;8.134;2022-11-20T05:01:28;3.97;;;3.67;;
47894;SDS011;33653;52.302;8.134;2022-11-20T05:03:56;4.20;;;2.90;;
47894;SDS011;33653;52.302;8.134;2022-11-20T05:09:27;4.10;;;3.73;;
47894;SDS011;33653;52.302;8.134;2022-11-20T05:11:55;6.03;;;3.20;;
47894;SDS011;33653;52.302;8.134;2022-11-20T05:14:23;2.80;;;2.60;;
47894;SDS011;33653;52.302;8.134;2022-11-20T05:16:51;2.20;;;2.10;;
47894;SDS011;33653;52.302;8.134;2022-11-20T05:19:18;2.23;;;2.13;;
47894;SDS011;33653;52.302;8.134;2022-11-20T05:21:47;3.23;;;3.03;;
47894;SDS011;33653;52.302;8.134;2022-11-20T05:24:15;1.97;;;1.87;;
47894;SDS011;33653;52.302;8.134;2022-11-20T05:26:43;3.07;;;2.87;;
47894;SDS011;33653;52.302;8.134;2022-11-20T05:29:11;2.00;;;1.90;;
47894;SDS011;33653;52.302;8.134;2022-11-20T05:31:40;2.03;;;1.93;;
47894;SDS011;33653;52.302;8.134;2022-11-20T05:34:07;2.87;;;2.67;;
47894;SDS011;33653;52.302;8.134;2022-11-20T05:36:35;2.63;;;2.47;;
47894;SDS011;33653;52.302;8.134;2022-11-20T05:39:03;6.20;;;3.83;;
47894;SDS011;33653;52.302;8.134;2022-11-20T05:41:32;2.93;;;2.83;;
47894;SDS011;33653;52.302;8.134;2022-11-20T05:44:00;3.77;;;3.50;;
47894;SDS011;33653;52.302;8.134;2022-11-20T05:46:28;11.57;;;2.97;;
47894;SDS011;33653;52.302;8.134;2022-11-20T05:48:56;3.10;;;2.90;;
47894;SDS011;33653;52.302;8.134;2022-11-20T05:51:25;3.23;;;2.57;;
47894;SDS011;33653;52.302;8.134;2022-11-20T05:53:53;2.73;;;2.53;;
47894;SDS011;33653;52.302;8.134;2022-11-20T05:56:23;3.17;;;2.67;;
47894;SDS011;33653;52.302;8.134;2022-11-20T05:58:50;3.20;;;2.70;;
47894;SDS011;33653;52.302;8.134;2022-11-20T06:01:23;3.27;;;2.87;;
47894;SDS011;33653;52.302;8.134;2022-11-20T06:03:52;3.00;;;2.50;;
47894;SDS011;33653;52.302;8.134;2022-11-20T06:06:20;2.13;;;2.03;;
47894;SDS011;33653;52.302;8.134;2022-11-20T06:08:49;4.20;;;2.60;;
47894;SDS011;33653;52.302;8.134;2022-11-20T06:11:17;2.93;;;2.30;;
47894;SDS011;33653;52.302;8.134;2022-11-20T06:13:45;2.93;;;2.73;;
47894;SDS011;33653;52.302;8.134;2022-11-20T06:16:15;2.33;;;2.23;;
47894;SDS011;33653;52.302;8.134;2022-11-20T06:18:45;2.47;;;2.37;;
47894;SDS011;33653;52.302;8.134;2022-11-20T06:21:15;2.97;;;2.77;;
47894;SDS011;33653;52.302;8.134;2022-11-20T06:23:44;2.40;;;2.30;;
47894;SDS011;33653;52.302;8.134;2022-11-20T06:26:14;2.70;;;2.60;;
47894;SDS011;33653;52.302;8.134;2022-11-20T06:28:46;2.80;;;2.63;;
47894;SDS011;33653;52.302;8.134;2022-11-20T06:31:16;2.40;;;2.23;;
47894;SDS011;33653;52.302;8.134;2022-11-20T06:33:46;4.00;;;3.07;;
47894;SDS011;33653;52.302;8.134;2022-11-20T06:36:15;4.33;;;2.90;;
47894;SDS011;33653;52.302;8.134;2022-11-20T06:38:45;1.63;;;1.60;;
47894;SDS011;33653;52.302;8.134;2022-11-20T06:41:14;2.93;;;2.73;;
47894;SDS011;33653;52.302;8.134;2022-11-20T06:43:44;5.50;;;2.90;;
47894;SDS011;33653;52.302;8.134;2022-11-20T06:46:16;3.70;;;3.40;;
47894;SDS011;33653;52.302;8.134;2022-11-20T06:48:46;7.10;;;3.10;;
47894;SDS011;33653;52.302;8.134;2022-11-20T06:51:17;4.17;;;3.43;;
47894;SDS011;33653;52.302;8.134;2022-11-20T06:53:46;2.33;;;2.23;;
47894;SDS011;33653;52.302;8.134;2022-11-20T06:56:22;3.50;;;3.30;;
47894;SDS011;33653;52.302;8.134;2022-11-20T06:58:50;4.17;;;3.87;;
47894;SDS011;33653;52.302;8.134;2022-11-20T07:01:17;2.67;;;2.47;;
47894;SDS011;33653;52.302;8.134;2022-11-20T07:03:48;4.87;;;4.47;;
47894;SDS011;33653;52.302;8.134;2022-11-20T07:06:21;2.97;;;2.20;;
47894;SDS011;33653;52.302;8.134;2022-11-20T07:08:52;7.13;;;4.23;;
47894;SDS011;33653;52.302;8.134;2022-11-20T07:11:20;5.13;;;4.72;;
47894;SDS011;33653;52.302;8.134;2022-11-20T07:13:48;4.77;;;3.40;;
47894;SDS011;33653;52.302;8.134;2022-11-20T07:16:16;3.43;;;3.13;;
47894;SDS011;33653;52.302;8.134;2022-11-20T07:18:44;4.50;;;4.10;;
47894;SDS011;33653;52.302;8.134;2022-11-20T07:21:17;4.80;;;4.40;;
47894;SDS011;33653;52.302;8.134;2022-11-20T07:23:44;4.10;;;3.43;;
47894;SDS011;33653;52.302;8.134;2022-11-20T07:26:12;4.67;;;4.27;;
47894;SDS011;33653;52.302;8.134;2022-11-20T07:28:43;9.30;;;5.60;;
47894;SDS011;33653;52.302;8.134;2022-11-20T07:33:45;2.50;;;2.40;;
47894;SDS011;33653;52.302;8.134;2022-11-20T07:36:13;3.43;;;3.13;;
47894;SDS011;33653;52.302;8.134;2022-11-20T07:38:41;3.57;;;3.27;;
47894;SDS011;33653;52.302;8.134;2022-11-20T07:41:09;8.10;;;5.93;;
47894;SDS011;33653;52.302;8.134;2022-11-20T07:43:37;4.30;;;3.73;;
47894;SDS011;33653;52.302;8.134;2022-11-20T07:46:07;4.38;;;4.07;;
47894;SDS011;33653;52.302;8.134;2022-11-20T07:48:35;10.03;;;4.10;;
47894;SDS011;33653;52.302;8.134;2022-11-20T07:51:03;5.37;;;4.57;;
47894;SDS011;33653;52.302;8.134;2022-11-20T07:53:31;4.07;;;3.73;;
47894;SDS011;33653;52.302;8.134;2022-11-20T07:55:59;4.50;;;4.07;;
47894;SDS011;33653;52.302;8.134;2022-11-20T07:58:29;3.17;;;2.97;;
47894;SDS011;33653;52.302;8.134;2022-11-20T08:01:03;9.68;;;5.50;;
47894;SDS011;33653;52.302;8.134;2022-11-20T08:03:34;4.60;;;4.23;;
47894;SDS011;33653;52.302;8.134;2022-11-20T08:06:04;6.10;;;5.53;;
47894;SDS011;33653;52.302;8.134;2022-11-20T08:08:32;8.57;;;5.17;;
47894;SDS011;33653;52.302;8.134;2022-11-20T08:11:06;8.97;;;5.53;;
47894;SDS011;33653;52.302;8.134;2022-11-20T08:13:53;4.87;;;4.33;;
47894;SDS011;33653;52.302;8.134;2022-11-20T08:16:46;6.23;;;4.27;;
47894;SDS011;33653;52.302;8.134;2022-11-20T08:19:16;4.07;;;3.77;;
47894;SDS011;33653;52.302;8.134;2022-11-20T08:21:45;4.13;;;3.73;;
47894;SDS011;33653;52.302;8.134;2022-11-20T08:24:13;8.40;;;4.50;;
47894;SDS011;33653;52.302;8.134;2022-11-20T08:26:41;6.97;;;6.30;;
47894;SDS011;33653;52.302;8.134;2022-11-20T08:29:17;4.37;;;3.93;;
47894;SDS011;33653;52.302;8.134;2022-11-20T08:31:45;12.70;;;6.80;;
47894;SDS011;33653;52.302;8.134;2022-11-20T08:34:13;4.53;;;4.17;;
47894;SDS011;33653;52.302;8.134;2022-11-20T08:36:45;9.40;;;5.80;;
47894;SDS011;33653;52.302;8.134;2022-11-20T08:39:13;6.40;;;5.77;;
47894;SDS011;33653;52.302;8.134;2022-11-20T08:41:41;8.17;;;6.23;;
47894;SDS011;33653;52.302;8.134;2022-11-20T08:44:09;6.77;;;5.03;;
47894;SDS011;33653;52.302;8.134;2022-11-20T08:46:38;6.90;;;4.80;;
47894;SDS011;33653;52.302;8.134;2022-11-20T08:49:08;6.90;;;4.75;;
47894;SDS011;33653;52.302;8.134;2022-11-20T08:51:39;7.33;;;5.93;;
47894;SDS011;33653;52.302;8.134;2022-11-20T08:54:09;7.47;;;4.70;;
47894;SDS011;33653;52.302;8.134;2022-11-20T08:56:38;6.47;;;4.67;;
47894;SDS011;33653;52.302;8.134;2022-11-20T08:59:06;7.80;;;6.17;;
47894;SDS011;33653;52.302;8.134;2022-11-20T09:01:54;7.90;;;5.43;;
47894;SDS011;33653;52.302;8.134;2022-11-20T09:04:21;5.80;;;5.23;;
47894;SDS011;33653;52.302;8.134;2022-11-20T09:06:49;6.03;;;5.37;;
47894;SDS011;33653;52.302;8.134;2022-11-20T09:09:19;6.03;;;4.50;;
47894;SDS011;33653;52.302;8.134;2022-11-20T09:11:47;6.67;;;4.60;;
47894;SDS011;33653;52.302;8.134;2022-11-20T09:14:16;4.20;;;3.80;;
47894;SDS011;33653;52.302;8.134;2022-11-20T09:16:44;6.17;;;4.37;;
47894;SDS011;33653;52.302;8.134;2022-11-20T09:19:13;6.67;;;5.70;;
47894;SDS011;33653;52.302;8.134;2022-11-20T09:22:01;6.23;;;5.00;;
47894;SDS011;33653;52.302;8.134;2022-11-20T09:24:29;7.67;;;5.90;;
47894;SDS011;33653;52.302;8.134;2022-11-20T09:26:57;6.33;;;5.47;;
47894;SDS011;33653;52.302;8.134;2022-11-20T09:29:25;5.13;;;4.63;;
47894;SDS011;33653;52.302;8.134;2022-11-20T09:31:52;6.03;;;4.83;;
47894;SDS011;33653;52.302;8.134;2022-11-20T09:34:20;8.43;;;5.40;;
47894;SDS011;33653;52.302;8.134;2022-11-20T09:36:48;7.27;;;5.73;;
47894;SDS011;33653;52.302;8.134;2022-11-20T09:39:16;5.50;;;4.87;;
47894;SDS011;33653;52.302;8.134;2022-11-20T09:44:47;10.43;;;6.20;;
47894;SDS011;33653;52.302;8.134;2022-11-20T09:47:40;7.20;;;5.25;;
47894;SDS011;33653;52.302;8.134;2022-11-20T09:50:32;6.73;;;6.13;;
47894;SDS011;33653;52.302;8.134;2022-11-20T09:56:06;6.70;;;6.00;;
47894;SDS011;33653;52.302;8.134;2022-11-20T09:58:41;14.23;;;7.00;;
47894;SDS011;33653;52.302;8.134;2022-11-20T10:01:12;9.53;;;5.63;;
47894;SDS011;33653;52.302;8.134;2022-11-20T10:03:58;9.97;;;7.27;;
47894;SDS011;33653;52.302;8.134;2022-11-20T10:09:58;8.07;;;6.40;;
47894;SDS011;33653;52.302;8.134;2022-11-20T10:15:22;10.33;;;6.20;;
47894;SDS011;33653;52.302;8.134;2022-11-20T10:20:59;7.77;;;6.13;;
47894;SDS011;33653;52.302;8.134;2022-11-20T10:24:00;11.23;;;5.97;;
47894;SDS011;33653;52.302;8.134;2022-11-20T10:27:12;8.70;;;6.13;;
47894;SDS011;33653;52.302;8.134;2022-11-20T10:30:15;7.50;;;4.87;;
47894;SDS011;33653;52.302;8.134;2022-11-20T10:32:54;11.10;;;6.00;;
47894;SDS011;33653;52.302;8.134;2022-11-20T10:38:14;9.47;;;6.27;;
47894;SDS011;33653;52.302;8.134;2022-11-20T10:41:06;11.03;;;6.23;;
47894;SDS011;33653;52.302;8.134;2022-11-20T10:43:54;10.53;;;6.57;;
47894;SDS011;33653;52.302;8.134;2022-11-20T10:46:40;9.17;;;6.17;;
47894;SDS011;33653;52.302;8.134;2022-11-20T10:49:13;11.52;;;6.85;;
47894;SDS011;33653;52.302;8.134;2022-11-20T10:54:22;8.37;;;5.97;;
47894;SDS011;33653;52.302;8.134;2022-11-20T11:00:22;12.27;;;5.73;;
47894;SDS011;33653;52.302;8.134;2022-11-20T11:02:51;11.27;;;6.70;;
47894;SDS011;33653;52.302;8.134;2022-11-20T11:08:04;15.33;;;7.63;;
47894;SDS011;33653;52.302;8.134;2022-11-20T11:13:28;19.23;;;9.60;;
47894;SDS011;33653;52.302;8.134;2022-11-20T11:15:57;12.87;;;8.30;;
47894;SDS011;33653;52.302;8.134;2022-11-20T11:18:26;14.93;;;8.00;;
47894;SDS011;33653;52.302;8.134;2022-11-20T11:21:00;12.60;;;7.97;;
47894;SDS011;33653;52.302;8.134;2022-11-20T11:25:59;13.07;;;8.27;;
47894;SDS011;33653;52.302;8.134;2022-11-20T11:28:29;13.80;;;7.93;;
47894;SDS011;33653;52.302;8.134;2022-11-20T11:30:57;12.48;;;6.85;;
47894;SDS011;33653;52.302;8.134;2022-11-20T11:33:29;12.35;;;7.50;;
47894;SDS011;33653;52.302;8.134;2022-11-20T11:36:01;13.68;;;7.05;;
47894;SDS011;33653;52.302;8.134;2022-11-20T11:41:12;12.55;;;7.68;;
47894;SDS011;33653;52.302;8.134;2022-11-20T11:43:57;13.65;;;8.57;;
47894;SDS011;33653;52.302;8.134;2022-11-20T11:46:50;10.00;;;5.65;;
47894;SDS011;33653;52.302;8.134;2022-11-20T11:49:22;10.57;;;6.60;;
47894;SDS011;33653;52.302;8.134;2022-11-20T11:52:01;12.23;;;7.32;;
47894;SDS011;33653;52.302;8.134;2022-11-20T11:54:48;14.60;;;6.85;;
47894;SDS011;33653;52.302;8.134;2022-11-20T12:02:43;12.38;;;6.47;;
47894;SDS011;33653;52.302;8.134;2022-11-20T12:05:18;13.57;;;7.95;;
47894;SDS011;33653;52.302;8.134;2022-11-20T12:10:49;13.77;;;7.30;;
47894;SDS011;33653;52.302;8.134;2022-11-20T12:17:07;19.00;;;7.43;;
47894;SDS011;33653;52.302;8.134;2022-11-20T12:19:39;16.45;;;8.15;;
47894;SDS011;33653;52.302;8.134;2022-11-20T12:38:29;18.02;;;8.38;;
47894;SDS011;33653;52.302;8.134;2022-11-20T12:53:58;12.13;;;6.82;;
47894;SDS011;33653;52.302;8.134;2022-11-20T13:02:56;15.13;;;7.85;;
47894;SDS011;33653;52.302;8.134;2022-11-20T13:06:10;15.13;;;8.10;;
47894;SDS011;33653;52.302;8.134;2022-11-20T13:09:06;16.75;;;8.38;;
47894;SDS011;33653;52.302;8.134;2022-11-20T13:15:07;13.68;;;7.43;;
47894;SDS011;33653;52.302;8.134;2022-11-20T13:18:09;15.05;;;7.00;;
47894;SDS011;33653;52.302;8.134;2022-11-20T13:20:21;14.48;;;7.70;;
47894;SDS011;33653;52.302;8.134;2022-11-20T13:22:50;13.68;;;7.35;;
47894;SDS011;33653;52.302;8.134;2022-11-20T13:28:01;12.15;;;7.35;;
47894;SDS011;33653;52.302;8.134;2022-11-20T13:30:37;14.48;;;7.47;;
47894;SDS011;33653;52.302;8.134;2022-11-20T13:33:28;13.77;;;7.20;;
47894;SDS011;33653;52.302;8.134;2022-11-20T13:36:05;12.57;;;7.50;;
47894;SDS011;33653;52.302;8.134;2022-11-20T13:38:48;11.45;;;6.90;;
47894;SDS011;33653;52.302;8.134;2022-11-20T13:41:24;9.65;;;5.97;;
47894;SDS011;33653;52.302;8.134;2022-11-20T13:43:59;14.32;;;7.43;;
47894;SDS011;33653;52.302;8.134;2022-11-20T13:46:52;11.95;;;6.18;;
47894;SDS011;33653;52.302;8.134;2022-11-20T13:49:23;12.73;;;7.45;;
47894;SDS011;33653;52.302;8.134;2022-11-20T13:55:59;11.90;;;6.55;;
47894;SDS011;33653;52.302;8.134;2022-11-20T13:58:53;10.30;;;6.03;;
47894;SDS011;33653;52.302;8.134;2022-11-20T14:01:51;11.15;;;6.43;;
47894;SDS011;33653;52.302;8.134;2022-11-20T14:04:21;10.52;;;6.38;;
47894;SDS011;33653;52.302;8.134;2022-11-20T14:06:56;12.77;;;6.28;;
47894;SDS011;33653;52.302;8.134;2022-11-20T14:09:26;11.25;;;6.55;;
47894;SDS011;33653;52.302;8.134;2022-11-20T14:11:56;13.25;;;6.60;;
47894;SDS011;33653;52.302;8.134;2022-11-20T14:14:28;13.43;;;6.88;;
47894;SDS011;33653;52.302;8.134;2022-11-20T14:17:17;11.02;;;6.47;;
47894;SDS011;33653;52.302;8.134;2022-11-20T14:20:01;13.20;;;6.90;;
47894;SDS011;33653;52.302;8.134;2022-11-20T14:22:32;12.82;;;6.13;;
47894;SDS011;33653;52.302;8.134;2022-11-20T14:25:05;12.50;;;6.85;;
47894;SDS011;33653;52.302;8.134;2022-11-20T14:27:47;14.05;;;6.70;;
47894;SDS011;33653;52.302;8.134;2022-11-20T14:32:57;7.97;;;5.90;;
47894;SDS011;33653;52.302;8.134;2022-11-20T14:35:30;11.98;;;7.05;;
47894;SDS011;33653;52.302;8.134;2022-11-20T14:38:02;10.18;;;6.90;;
47894;SDS011;33653;52.302;8.134;2022-11-20T14:40:31;15.07;;;7.20;;
47894;SDS011;33653;52.302;8.134;2022-11-20T14:43:16;11.40;;;6.97;;
47894;SDS011;33653;52.302;8.134;2022-11-20T14:45:58;10.80;;;6.85;;
47894;SDS011;33653;52.302;8.134;2022-11-20T14:48:43;10.57;;;6.78;;
47894;SDS011;33653;52.302;8.134;2022-11-20T14:51:36;10.65;;;6.40;;
47894;SDS011;33653;52.302;8.134;2022-11-20T14:56:36;15.35;;;8.40;;
47894;SDS011;33653;52.302;8.134;2022-11-20T14:59:05;11.90;;;7.15;;
47894;SDS011;33653;52.302;8.134;2022-11-20T15:01:34;8.82;;;6.38;;
47894;SDS011;33653;52.302;8.134;2022-11-20T15:04:10;13.32;;;7.75;;
47894;SDS011;33653;52.302;8.134;2022-11-20T15:06:48;10.93;;;7.22;;
47894;SDS011;33653;52.302;8.134;2022-11-20T15:09:21;8.27;;;6.30;;
47894;SDS011;33653;52.302;8.134;2022-11-20T15:12:02;10.95;;;6.25;;
47894;SDS011;33653;52.302;8.134;2022-11-20T15:14:31;9.50;;;5.63;;
47894;SDS011;33653;52.302;8.134;2022-11-20T15:17:07;9.23;;;6.20;;
47894;SDS011;33653;52.302;8.134;2022-11-20T15:19:36;11.13;;;7.05;;
47894;SDS011;33653;52.302;8.134;2022-11-20T15:22:06;9.55;;;6.28;;
47894;SDS011;33653;52.302;8.134;2022-11-20T15:24:39;11.13;;;6.30;;
47894;SDS011;33653;52.302;8.134;2022-11-20T15:27:07;8.88;;;7.03;;
47894;SDS011;33653;52.302;8.134;2022-11-20T15:29:36;8.88;;;6.30;;
47894;SDS011;33653;52.302;8.134;2022-11-20T15:32:04;10.23;;;6.88;;
47894;SDS011;33653;52.302;8.134;2022-11-20T15:34:39;11.57;;;6.70;;
47894;SDS011;33653;52.302;8.134;2022-11-20T15:37:07;14.23;;;6.15;;
47894;SDS011;33653;52.302;8.134;2022-11-20T15:39:34;8.40;;;5.60;;
47894;SDS011;33653;52.302;8.134;2022-11-20T15:42:02;7.63;;;5.30;;
47894;SDS011;33653;52.302;8.134;2022-11-20T15:44:30;8.52;;;6.25;;
47894;SDS011;33653;52.302;8.134;2022-11-20T15:46:58;11.57;;;6.38;;
47894;SDS011;33653;52.302;8.134;2022-11-20T15:49:26;9.45;;;6.05;;
47894;SDS011;33653;52.302;8.134;2022-11-20T15:51:54;9.85;;;6.10;;
47894;SDS011;33653;52.302;8.134;2022-11-20T15:54:22;12.23;;;6.57;;
47894;SDS011;33653;52.302;8.134;2022-11-20T15:56:50;9.65;;;5.85;;
47894;SDS011;33653;52.302;8.134;2022-11-20T15:59:19;11.45;;;7.75;;
47894;SDS011;33653;52.302;8.134;2022-11-20T16:01:47;8.13;;;6.70;;
47894;SDS011;33653;52.302;8.134;2022-11-20T16:04:15;6.75;;;4.93;;
47894;SDS011;33653;52.302;8.134;2022-11-20T16:06:44;12.03;;;7.13;;
47894;SDS011;33653;52.302;8.134;2022-11-20T16:09:11;8.80;;;6.55;;
47894;SDS011;33653;52.302;8.134;2022-11-20T16:11:40;7.47;;;5.60;;
47894;SDS011;33653;52.302;8.134;2022-11-20T16:14:09;6.43;;;5.38;;
47894;SDS011;33653;52.302;8.134;2022-11-20T16:16:56;14.90;;;6.27;;
47894;SDS011;33653;52.302;8.134;2022-11-20T16:19:24;8.87;;;6.40;;
47894;SDS011;33653;52.302;8.134;2022-11-20T16:21:52;8.07;;;5.60;;
47894;SDS011;33653;52.302;8.134;2022-11-20T16:24:27;6.27;;;5.53;;
47894;SDS011;33653;52.302;8.134;2022-11-20T16:26:55;10.70;;;6.57;;
47894;SDS011;33653;52.302;8.134;2022-11-20T16:29:23;7.83;;;6.00;;
47894;SDS011;33653;52.302;8.134;2022-11-20T16:31:51;11.20;;;6.23;;
47894;SDS011;33653;52.302;8.134;2022-11-20T16:34:18;5.83;;;5.20;;
47894;SDS011;33653;52.302;8.134;2022-11-20T16:36:46;8.30;;;5.63;;
47894;SDS011;33653;52.302;8.134;2022-11-20T16:39:15;6.90;;;4.87;;
47894;SDS011;33653;52.302;8.134;2022-11-20T16:41:49;8.63;;;5.53;;
47894;SDS011;33653;52.302;8.134;2022-11-20T16:44:17;8.43;;;5.70;;
47894;SDS011;33653;52.302;8.134;2022-11-20T16:46:45;10.03;;;5.87;;
47894;SDS011;33653;52.302;8.134;2022-11-20T16:49:13;6.57;;;5.87;;
47894;SDS011;33653;52.302;8.134;2022-11-20T16:51:41;6.67;;;4.23;;
47894;SDS011;33653;52.302;8.134;2022-11-20T16:54:09;11.80;;;6.50;;
47894;SDS011;33653;52.302;8.134;2022-11-20T16:56:43;6.90;;;5.57;;
47894;SDS011;33653;52.302;8.134;2022-11-20T16:59:13;5.60;;;5.00;;
47894;SDS011;33653;52.302;8.134;2022-11-20T17:01:41;9.90;;;6.57;;
47894;SDS011;33653;52.302;8.134;2022-11-20T17:04:09;8.77;;;6.27;;
47894;SDS011;33653;52.302;8.134;2022-11-20T17:06:40;11.93;;;6.17;;